Nearby METAR Reports

 

KORH - Worcester, Massachusetts, USA
Distance from station: NW 4mi, 7km
Updated: Sat, 29-Apr-2017 12:54pm EDT
Mostly cloudy
Mostly cloudy
 Wind from WSW
Wind: WSW 16 mph , 26 km/h, Gust: 24 mph , 39 km/h
Temperature: 75°F , 24°C
Dew Point: 54°F , 12°C
Humidity: 47%
Barometer: 29.91 inHg , 1012.9 hPa
Clouds: Mostly cloudy
Visibility: 10 miles , 16 km
Cloud details: Few Clouds 4500 ft
Mostly cloudy 8000 ft
2017/04/29 16:54 KORH 291654Z 25014G21KT 10SM FEW045 BKN080 24/12 A2991 RMK AO2 SLP123 T02390122
KBOS - Boston, Massachusetts, USA
Distance from station: ENE 42mi, 68km
Updated: Sat, 29-Apr-2017 12:54pm EDT
Few Clouds
Few Clouds
 Wind from SW
Wind: SW 16 mph , 26 km/h, Gust: 25 mph , 41 km/h
Temperature: 82°F , 28°C
Heat Index: 81°F , 27°C
Dew Point: 55°F , 13°C
Humidity: 40%
Barometer: 29.84 inHg , 1010.5 hPa
Clouds: Few Clouds
Visibility: 10 miles , 16 km
Cloud details: Few Clouds 6500 ft
2017/04/29 16:54 KBOS 291654Z 23014G22KT 10SM FEW065 28/13 A2984 RMK AO2 SLP104 T02780133
 
KCQX - Chatham, Massachusetts, USA
Distance from station: SE 102mi, 164km
Updated: Sat, 29-Apr-2017 1:13pm EDT
Mist, Overcast
Mist, Overcast
 Wind from SW
Wind: SW 12 mph , 19 km/h, Gust: 22 mph , 35 km/h
Temperature: 59°F , 15°C
Dew Point: 55°F , 13°C
Humidity: 88%
Barometer: 29.92 inHg , 1013.2 hPa
Summary: Mist
Clouds: Overcast
Visibility: 5 miles , 8 km
Cloud details: Overcast 200 ft
2017/04/29 17:13 KCQX 291713Z AUTO 23010G19KT 5SM BR OVC002 15/13 A2992 RMK AO2 T01500128
KMVY - Marthas Vineyard, Massachusetts, USA
Distance from station: SE 84mi, 135km
Updated: Sat, 29-Apr-2017 12:53pm EDT
Clear
Clear
 Wind from SSW
Wind: SSW 10 mph , 17 km/h, Gust: 25 mph , 41 km/h
Temperature: 70°F , 21°C
Dew Point: 61°F , 16°C
Humidity: 73%
Barometer: 29.92 inHg , 1013.2 hPa
Clouds: Clear
Visibility: 10 miles , 16 km
2017/04/29 16:53 KMVY 291653Z 21009G22KT 10SM CLR 21/16 A2992 RMK AO2 PK WND 21026/1613 SLP132 T02060156
 
KPVC - Provincetown, Massachusetts, USA
Distance from station: NNW 85mi, 136km
Updated: Sat, 29-Apr-2017 12:56pm EDT
Clear
Clear
 Wind from SSW
Wind: SSW 18 mph , 30 km/h, Gust: 25 mph , 41 km/h
Temperature: 64°F , 18°C
Dew Point: 57°F , 14°C
Humidity: 78%
Barometer: 29.88 inHg , 1011.9 hPa
Clouds: Clear
Visibility: 10 miles , 16 km
2017/04/29 16:56 KPVC 291656Z AUTO 21016G22KT 10SM CLR 18/14 A2988 RMK AO2 SLP119 T01830144
KAQW - Savoy, Massachusetts, USA
Distance from station: NNW 66mi, 106km
Updated: Sat, 29-Apr-2017 12:52pm EDT
Overcast
Overcast
 Wind from WNW
Wind: WNW 6 mph , 9 km/h
Temperature: 72°F , 22°C
Dew Point: 50°F , 10°C
Humidity: 47%
Barometer: 29.94 inHg , 1013.9 hPa
Clouds: Overcast
Visibility: 10 miles , 16 km
Cloud details: Overcast 4700 ft
2017/04/29 16:52 KAQW 291652Z AUTO 29005KT 10SM OVC047 22/10 A2994 RMK AO2 SLP136 T02170100
 
KIZG - Fryeburg, Maine, USA
Distance from station: NNE 133mi, 214km
Updated: Sat, 29-Apr-2017 12:54pm EDT
Overcast
Overcast
 Wind from W
Wind: W 10 mph , 17 km/h, Gust: 18 mph , 30 km/h
Temperature: 73°F , 23°C
Dew Point: 46°F , 8°C
Humidity: 38%
Barometer: 29.81 inHg , 1009.5 hPa
Clouds: Overcast
Visibility: 10 miles , 16 km
Cloud details: Overcast 8500 ft
2017/04/29 16:54 KIZG 291654Z AUTO 28009G16KT 230V300 10SM OVC085 23/08 A2981 RMK AO2 SLP095 T02330078
KMWN - Mt Washington, New Hampshire, USA
Distance from station: NNE 146mi, 234km
Updated: Sat, 29-Apr-2017 12:55pm EDT
Overcast
Overcast
 Wind from W
Wind: W 51 mph , 81 km/h, Gust: 60 mph , 96 km/h
Temperature: 41°F , 5°C
Wind Chill: 27°F , -3°C
Dew Point: 41°F , 5°C
Humidity: 100%
Clouds: Overcast
Visibility: 90 miles , 144 km
Cloud details: Overcast 1000 ft
2017/04/29 16:55 KMWN 291655Z 28044G52KT 90SM OVC010 05/05 RMK SH DSNT N T00530048
 
KBML - Berlin, New Hampshire, USA
Distance from station: NNE 160mi, 257km
Updated: Sat, 29-Apr-2017 12:52pm EDT
Overcast
Overcast
 Wind from NW
Wind: NW 8 mph , 13 km/h, Gust: 20 mph , 31 km/h
Temperature: 70°F , 21°C
Dew Point: 41°F , 5°C
Humidity: 35%
Barometer: 29.83 inHg , 1010.2 hPa
Clouds: Overcast
Visibility: 10 miles , 16 km
Cloud details: Overcast 7000 ft
2017/04/29 16:52 KBML 291652Z AUTO 31007G17KT 260V340 10SM OVC070 21/05 A2983 RMK AO2 SLP105 T02110050